Britton, South Dakota
Current Conditions -  °F | °C
As of 10:35 PM on Sunday 25 Jan 2015 (Local Time) from KGWR Reporting Station
Overcast Overcast  
Wind Chill: 21°   Ceiling: 400
Heat Index: 32°   Visibility: 10mi
Dew Point: 32°   Wind: 17mph
Humidity: 100%   Direction: 210°SSW
Pressure: 29.82"   Gusts: 21mph
Location:  45.79°N, 97.75°W
Report Text: KGWR 260435Z AUTO 21015G18KT 10SM OVC004 00/00 A2982 RMK A01 P000
Loading
Personal Weather Stations






























Interactive Weather Map New forecast layout! Learn more

10-Day Weather Forecast

Advertisements
Track Severe Weather on mobile